Time;durP1;ratioP1;P1;durP2;ratioP2;P2;SDS_P1;SDS_P2;PMS_P1;PMS_P2;Temp;Humidity;BMP_temperature;BMP_pressure;BME280_temperature;BME280_humidity;BME280_pressure;Samples;Min_cycle;Max_cycle;Signal;HPM_P1;HPM_P2
2024/03/27 00:00:17;;;;;;;;;;;9.50;99.60;;;;;;2076402;28;20614;-74
2024/03/27 00:01:18;;;;;;;;;;;9.50;99.30;;;;;;2076616;28;20403;-74
2024/03/27 00:02:18;;;;;;;;;;;9.50;99.90;;;;;;2080152;28;19917;-74
2024/03/27 00:03:19;;;;;;;;;;;9.60;99.80;;;;;;2077015;28;20043;-74
2024/03/27 00:04:19;;;;;;;;;;;9.60;99.90;;;;;;2067335;28;20822;-75
2024/03/27 00:05:20;;;;;;;;;;;9.60;99.90;;;;;;2059299;28;19925;-75
2024/03/27 00:06:21;;;;;;;;;;;9.60;99.90;;;;;;2059091;28;20374;-74
2024/03/27 00:07:21;;;;;;;;;;;9.60;99.90;;;;;;2067430;28;19922;-74
2024/03/27 00:08:22;;;;;;;;;;;9.60;99.90;;;;;;2067664;28;20437;-74
2024/03/27 00:09:22;;;;;;;;;;;9.60;99.90;;;;;;2067091;28;19922;-74
2024/03/27 00:10:23;;;;;;;;;;;9.60;99.80;;;;;;2067622;28;19928;-74
2024/03/27 00:11:26;;;;;;;;;;;9.70;99.70;;;;;;2059232;28;19914;-74
2024/03/27 00:12:26;;;;;;;;;;;9.70;99.90;;;;;;2059447;28;19949;-73
2024/03/27 00:13:26;;;;;;;;;;;9.70;99.90;;;;;;2067743;28;19975;-74
2024/03/27 00:14:27;;;;;;;;;;;9.70;99.90;;;;;;2076158;28;19923;-73
2024/03/27 00:15:28;;;;;;;;;;;9.70;99.90;;;;;;2067266;28;19917;-73
2024/03/27 00:16:28;;;;;;;;;;;9.80;99.60;;;;;;2071021;28;19913;-74
2024/03/27 00:17:29;;;;;;;;;;;9.80;99.30;;;;;;2076121;28;20401;-73
2024/03/27 00:18:29;;;;;;;;;;;9.90;98.50;;;;;;2066827;28;19917;-74
2024/03/27 00:19:30;;;;;;;;;;;9.90;99.00;;;;;;2067262;28;20443;-74
2024/03/27 00:20:30;;;;;;;;;;;9.90;98.70;;;;;;2067143;28;19929;-74
2024/03/27 00:21:30;;;;;;;;;;;9.90;98.60;;;;;;2062915;28;19914;-73
2024/03/27 00:22:32;;;;;;;;;;;9.90;99.20;;;;;;2067366;28;19913;-74
2024/03/27 00:23:33;;;;;;;;;;;9.90;99.10;;;;;;2060572;28;19921;-74
2024/03/27 00:24:34;;;;;;;;;;;9.90;99.60;;;;;;2068753;28;19918;-74
2024/03/27 00:25:34;;;;;;;;;;;9.90;99.70;;;;;;2075138;28;19921;-73
2024/03/27 00:26:35;;;;;;;;;;;9.90;98.90;;;;;;2067203;28;20004;-74
2024/03/27 00:27:35;;;;;;;;;;;9.90;99.00;;;;;;2067370;28;20450;-74
2024/03/27 00:28:36;;;;;;;;;;;9.90;99.30;;;;;;2069235;28;20017;-74
2024/03/27 00:29:36;;;;;;;;;;;10.00;99.10;;;;;;2067497;28;20361;-73
2024/03/27 00:30:37;;;;;;;;;;;10.00;98.60;;;;;;2072330;28;19956;-73
2024/03/27 00:31:37;;;;;;;;;;;10.00;98.90;;;;;;2056041;28;20423;-74
2024/03/27 00:32:38;;;;;;;;;;;10.00;98.60;;;;;;2059004;28;20446;-74
2024/03/27 00:33:38;;;;;;;;;;;10.00;99.00;;;;;;2076348;28;20375;-74
2024/03/27 00:34:39;;;;;;;;;;;10.00;99.00;;;;;;2067515;28;20008;-74
2024/03/27 00:35:39;;;;;;;;;;;10.00;98.80;;;;;;2067292;28;19936;-73
2024/03/27 00:36:39;;;;;;;;;;;10.00;99.10;;;;;;2076097;28;20387;-74
2024/03/27 00:37:40;;;;;;;;;;;10.00;99.00;;;;;;2075953;28;19917;-74
2024/03/27 00:38:40;;;;;;;;;;;10.00;99.20;;;;;;2080597;28;20004;-73
2024/03/27 00:39:41;;;;;;;;;;;10.00;99.40;;;;;;2076756;28;20063;-73
2024/03/27 00:40:41;;;;;;;;;;;10.00;99.20;;;;;;2076744;28;20384;-74
2024/03/27 00:41:42;;;;;;;;;;;10.00;98.90;;;;;;2076264;28;19953;-74
2024/03/27 00:42:43;;;;;;;;;;;10.00;99.30;;;;;;2078092;28;19959;-74
2024/03/27 00:43:44;;;;;;;;;;;9.90;99.20;;;;;;2063250;28;19972;-73
2024/03/27 00:44:45;;;;;;;;;;;9.90;99.40;;;;;;2067387;28;20343;-73
2024/03/27 00:45:46;;;;;;;;;;;10.00;99.30;;;;;;2063796;28;19963;-74
2024/03/27 00:46:46;;;;;;;;;;;9.90;99.40;;;;;;2059110;28;19921;-74
2024/03/27 00:47:46;;;;;;;;;;;10.00;99.30;;;;;;2051262;28;19918;-74
2024/03/27 00:48:47;;;;;;;;;;;9.90;99.50;;;;;;2054218;28;20316;-74
2024/03/27 00:49:47;;;;;;;;;;;9.90;99.50;;;;;;2055229;28;19922;-74
2024/03/27 00:50:48;;;;;;;;;;;9.90;99.50;;;;;;2058970;28;19918;-73
2024/03/27 00:51:48;;;;;;;;;;;10.00;99.20;;;;;;2076327;28;19920;-74
2024/03/27 00:52:49;;;;;;;;;;;9.90;99.60;;;;;;2072153;28;19920;-74
2024/03/27 00:53:49;;;;;;;;;;;9.90;99.60;;;;;;2071481;28;20284;-73
2024/03/27 00:54:50;;;;;;;;;;;9.90;99.30;;;;;;2071846;28;19917;-74
2024/03/27 00:56:09;;;;;;;;;;;9.90;99.60;;;;;;2072004;28;20012;-73
2024/03/27 00:57:09;;;;;;;;;;;9.90;99.30;;;;;;2062581;28;19917;-74
2024/03/27 00:58:10;;;;;;;;;;;9.90;99.60;;;;;;2059145;28;19961;-73
2024/03/27 00:59:10;;;;;;;;;;;9.80;99.90;;;;;;2067226;28;19999;-74
2024/03/27 01:00:11;;;;;;;;;;;9.80;99.90;;;;;;2067417;28;19952;-74
2024/03/27 01:01:12;;;;;;;;;;;9.80;99.90;;;;;;2067028;28;20008;-74
2024/03/27 01:02:12;;;;;;;;;;;9.80;99.90;;;;;;2067258;28;20341;-74
2024/03/27 01:03:13;;;;;;;;;;;9.70;99.90;;;;;;2054958;28;19917;-74
2024/03/27 01:04:14;;;;;;;;;;;9.70;99.90;;;;;;2059269;28;19921;-73
2024/03/27 01:05:15;;;;;;;;;;;9.80;99.90;;;;;;2076295;28;20007;-73
2024/03/27 01:06:16;;;;;;;;;;;9.80;99.90;;;;;;2076227;28;20018;-74
2024/03/27 01:07:16;;;;;;;;;;;9.80;99.90;;;;;;2076000;28;19975;-73
2024/03/27 01:08:17;;;;;;;;;;;9.80;99.90;;;;;;2076026;28;19913;-72
2024/03/27 01:09:18;;;;;;;;;;;9.80;99.90;;;;;;2058871;28;19949;-72
2024/03/27 01:10:19;;;;;;;;;;;9.80;99.90;;;;;;2059108;28;19921;-73
2024/03/27 01:11:20;;;;;;;;;;;9.80;99.90;;;;;;2067157;28;19917;-73
2024/03/27 01:12:20;;;;;;;;;;;9.80;99.90;;;;;;2067266;28;20065;-73
2024/03/27 01:13:21;;;;;;;;;;;9.70;99.90;;;;;;2067037;28;19921;-72
2024/03/27 01:14:21;;;;;;;;;;;9.70;99.90;;;;;;2059003;28;19973;-73
2024/03/27 01:15:22;;;;;;;;;;;9.70;99.90;;;;;;2067208;28;20036;-72
2024/03/27 01:16:25;;;;;;;;;;;9.80;99.90;;;;;;2075159;28;19964;-72
2024/03/27 01:17:26;;;;;;;;;;;9.70;99.90;;;;;;2075746;28;20405;-73
2024/03/27 01:18:26;;;;;;;;;;;9.70;99.90;;;;;;2080083;28;19971;-73
2024/03/27 01:19:27;;;;;;;;;;;9.70;99.90;;;;;;2066835;28;19918;-74
2024/03/27 01:20:27;;;;;;;;;;;9.70;99.90;;;;;;2058629;28;19971;-73
2024/03/27 01:21:28;;;;;;;;;;;9.70;99.90;;;;;;2066918;28;19944;-73
2024/03/27 01:22:28;;;;;;;;;;;9.70;99.90;;;;;;2067162;28;19984;-73
2024/03/27 01:23:29;;;;;;;;;;;9.70;99.90;;;;;;2058981;28;19920;-73
2024/03/27 01:24:29;;;;;;;;;;;9.80;99.90;;;;;;2068802;28;19917;-73
2024/03/27 01:25:30;;;;;;;;;;;9.80;99.90;;;;;;2076342;28;20391;-73
2024/03/27 01:26:30;;;;;;;;;;;9.80;99.90;;;;;;2075794;28;20180;-73
2024/03/27 01:27:31;;;;;;;;;;;9.80;99.90;;;;;;2075931;28;19967;-73
2024/03/27 01:28:31;;;;;;;;;;;9.80;99.90;;;;;;2067110;28;20410;-73
2024/03/27 01:29:32;;;;;;;;;;;9.70;99.90;;;;;;2058808;28;19909;-73
2024/03/27 01:30:32;;;;;;;;;;;9.80;99.90;;;;;;2066097;28;19924;-73
2024/03/27 01:31:33;;;;;;;;;;;9.80;99.90;;;;;;2062628;28;20367;-73
2024/03/27 01:32:34;;;;;;;;;;;9.80;99.90;;;;;;2076235;28;19913;-73
2024/03/27 01:33:34;;;;;;;;;;;9.80;99.90;;;;;;2075619;28;20052;-73
2024/03/27 01:34:35;;;;;;;;;;;9.90;99.90;;;;;;2076019;28;19923;-73
2024/03/27 01:35:35;;;;;;;;;;;9.80;99.90;;;;;;2075918;28;20334;-73
2024/03/27 01:36:36;;;;;;;;;;;9.80;99.90;;;;;;2066298;28;19927;-73
2024/03/27 01:37:36;;;;;;;;;;;9.80;99.90;;;;;;2071147;28;19913;-73
2024/03/27 01:38:37;;;;;;;;;;;9.80;99.90;;;;;;2075542;28;20360;-73
2024/03/27 01:39:37;;;;;;;;;;;9.80;99.90;;;;;;2067335;28;19951;-72
2024/03/27 01:40:38;;;;;;;;;;;9.80;99.90;;;;;;2066656;28;19997;-73
2024/03/27 01:41:38;;;;;;;;;;;9.80;99.90;;;;;;2066861;28;20375;-72
2024/03/27 01:42:39;;;;;;;;;;;9.70;99.90;;;;;;2059000;28;19960;-74
2024/03/27 01:43:39;;;;;;;;;;;9.70;99.90;;;;;;2067198;28;20011;-75
2024/03/27 01:44:40;;;;;;;;;;;9.70;99.90;;;;;;2066898;28;20379;-74
2024/03/27 01:45:40;;;;;;;;;;;9.70;99.90;;;;;;2067131;28;19953;-74
2024/03/27 01:46:41;;;;;;;;;;;9.70;99.90;;;;;;2075810;28;19913;-73
2024/03/27 01:47:41;;;;;;;;;;;9.70;99.90;;;;;;2075756;28;19913;-74
2024/03/27 01:48:43;;;;;;;;;;;9.60;99.90;;;;;;2076195;28;19917;-73
2024/03/27 01:49:44;;;;;;;;;;;9.60;99.90;;;;;;2075541;28;19921;-73
2024/03/27 01:50:45;;;;;;;;;;;9.60;99.90;;;;;;2075692;28;20260;-73
2024/03/27 01:51:45;;;;;;;;;;;9.60;99.90;;;;;;2066773;28;19918;-73
2024/03/27 01:52:46;;;;;;;;;;;9.60;99.90;;;;;;2061114;28;20435;-73
2024/03/27 01:53:47;;;;;;;;;;;9.60;99.90;;;;;;2066930;28;20727;-73
2024/03/27 01:54:47;;;;;;;;;;;9.60;99.90;;;;;;2058879;28;19922;-74
2024/03/27 01:55:48;;;;;;;;;;;9.60;99.90;;;;;;2053799;28;19972;-72
2024/03/27 01:56:48;;;;;;;;;;;9.60;99.90;;;;;;2066793;28;19952;-72
2024/03/27 01:57:49;;;;;;;;;;;9.60;99.90;;;;;;2075824;28;19971;-73
2024/03/27 01:58:49;;;;;;;;;;;9.50;99.90;;;;;;2075714;28;19940;-73
2024/03/27 01:59:50;;;;;;;;;;;9.50;99.90;;;;;;2066977;28;19922;-72
2024/03/27 02:00:51;;;;;;;;;;;9.50;99.90;;;;;;2066968;28;20335;-73
2024/03/27 02:01:52;;;;;;;;;;;9.60;99.90;;;;;;2075549;28;19964;-74
2024/03/27 02:02:52;;;;;;;;;;;9.50;99.90;;;;;;2075265;28;20404;-74
2024/03/27 02:03:53;;;;;;;;;;;9.60;99.90;;;;;;2077836;28;19920;-73
2024/03/27 02:04:53;;;;;;;;;;;9.60;99.90;;;;;;2068225;28;19997;-74
2024/03/27 02:05:54;;;;;;;;;;;9.50;99.90;;;;;;2066914;28;19928;-74
2024/03/27 02:06:54;;;;;;;;;;;9.60;99.90;;;;;;2066632;28;19999;-74
2024/03/27 02:07:55;;;;;;;;;;;9.50;99.90;;;;;;2075593;28;19924;-73
2024/03/27 02:08:55;;;;;;;;;;;9.50;99.90;;;;;;2067182;28;20075;-73
2024/03/27 02:09:56;;;;;;;;;;;9.50;99.90;;;;;;2067178;28;19909;-73
2024/03/27 02:10:56;;;;;;;;;;;9.50;99.90;;;;;;2075748;28;19935;-73
2024/03/27 02:11:57;;;;;;;;;;;9.60;99.90;;;;;;2075821;28;20410;-73
2024/03/27 02:12:57;;;;;;;;;;;9.60;99.90;;;;;;2075470;28;20349;-74
2024/03/27 02:13:58;;;;;;;;;;;9.60;99.90;;;;;;2067214;28;19941;-74
2024/03/27 02:15:05;;;;;;;;;;;9.60;99.90;;;;;;2066844;28;19965;-73
2024/03/27 02:16:05;;;;;;;;;;;9.50;99.90;;;;;;2071795;28;19967;-74
2024/03/27 02:17:06;;;;;;;;;;;9.50;99.90;;;;;;2075850;28;19917;-73
2024/03/27 02:18:06;;;;;;;;;;;9.50;99.90;;;;;;2066544;28;19973;-74
2024/03/27 02:19:07;;;;;;;;;;;9.40;99.90;;;;;;2066779;28;19917;-73
2024/03/27 02:20:09;;;;;;;;;;;9.40;99.90;;;;;;2076049;28;19917;-74
2024/03/27 02:21:11;;;;;;;;;;;9.40;99.90;;;;;;2067801;28;20375;-73
2024/03/27 02:22:11;;;;;;;;;;;9.40;99.90;;;;;;2066937;28;20000;-74
2024/03/27 02:23:13;;;;;;;;;;;9.30;99.90;;;;;;2066794;28;20375;-73
2024/03/27 02:24:26;;;;;;;;;;;9.30;99.90;;;;;;2066695;28;19924;-73
2024/03/27 02:25:32;;;;;;;;;;;9.30;99.90;;;;;;2075457;28;19942;-73
2024/03/27 02:26:33;;;;;;;;;;;9.40;99.90;;;;;;2054539;28;20214;-73
2024/03/27 02:27:34;;;;;;;;;;;9.40;99.90;;;;;;2054949;28;19928;-73
2024/03/27 02:28:34;;;;;;;;;;;9.30;99.90;;;;;;2071140;28;19924;-73
2024/03/27 02:29:35;;;;;;;;;;;9.40;99.90;;;;;;2067845;28;19921;-73
2024/03/27 02:30:36;;;;;;;;;;;9.40;99.90;;;;;;2067312;28;20291;-73
2024/03/27 02:31:36;;;;;;;;;;;9.40;99.90;;;;;;2063514;28;19913;-72
2024/03/27 02:32:37;;;;;;;;;;;9.30;99.90;;;;;;2068068;28;19928;-73
2024/03/27 02:33:37;;;;;;;;;;;9.30;99.90;;;;;;2054262;28;20403;-74
2024/03/27 02:34:38;;;;;;;;;;;9.30;99.90;;;;;;2050889;28;19922;-73
2024/03/27 02:35:38;;;;;;;;;;;9.30;99.90;;;;;;2068055;28;19917;-74
2024/03/27 02:36:39;;;;;;;;;;;9.30;99.90;;;;;;2070788;28;20393;-74
2024/03/27 02:37:39;;;;;;;;;;;9.30;99.90;;;;;;2058315;28;20038;-73
2024/03/27 02:38:39;;;;;;;;;;;9.20;99.90;;;;;;2058696;28;20263;-74
2024/03/27 02:39:40;;;;;;;;;;;9.20;99.90;;;;;;2066812;28;19918;-74
2024/03/27 02:40:40;;;;;;;;;;;9.20;99.90;;;;;;2066856;28;19936;-74
2024/03/27 02:41:41;;;;;;;;;;;9.20;99.90;;;;;;2060395;28;19917;-75
2024/03/27 02:42:41;;;;;;;;;;;9.20;99.90;;;;;;2073214;28;20264;-74
2024/03/27 02:43:42;;;;;;;;;;;9.20;99.90;;;;;;2072107;28;19924;-74
2024/03/27 02:44:42;;;;;;;;;;;9.10;99.90;;;;;;2073531;28;19913;-75
2024/03/27 02:45:43;;;;;;;;;;;9.20;99.90;;;;;;2069629;28;19917;-74
2024/03/27 02:46:43;;;;;;;;;;;9.20;99.90;;;;;;2073596;28;19972;-74
2024/03/27 02:47:44;;;;;;;;;;;9.20;99.90;;;;;;2057790;28;20360;-75
2024/03/27 02:48:44;;;;;;;;;;;9.20;99.90;;;;;;2056790;28;19922;-74
2024/03/27 02:49:45;;;;;;;;;;;9.20;99.90;;;;;;2071443;28;20427;-75
2024/03/27 02:50:45;;;;;;;;;;;9.20;99.90;;;;;;2064839;28;19921;-74
2024/03/27 02:51:46;;;;;;;;;;;9.20;99.90;;;;;;2062076;28;19914;-74
2024/03/27 02:52:46;;;;;;;;;;;9.20;99.90;;;;;;2064371;28;20372;-75
2024/03/27 02:53:46;;;;;;;;;;;9.20;99.90;;;;;;2066249;28;20305;-75
2024/03/27 02:54:47;;;;;;;;;;;9.20;99.90;;;;;;2068698;28;20064;-73
2024/03/27 02:55:51;;;;;;;;;;;9.20;99.90;;;;;;2076444;28;19913;-75
2024/03/27 02:56:51;;;;;;;;;;;9.20;99.90;;;;;;2071726;28;19964;-74
2024/03/27 02:57:52;;;;;;;;;;;9.20;99.90;;;;;;2061981;28;20836;-74
2024/03/27 02:58:53;;;;;;;;;;;9.20;99.90;;;;;;2052467;28;19929;-74
2024/03/27 02:59:53;;;;;;;;;;;9.20;99.90;;;;;;2060528;28;20032;-74
2024/03/27 03:00:54;;;;;;;;;;;9.10;99.90;;;;;;2069110;28;20446;-74
2024/03/27 03:01:54;;;;;;;;;;;9.10;99.90;;;;;;2073140;28;20214;-74
2024/03/27 03:02:55;;;;;;;;;;;9.10;99.90;;;;;;2055273;28;20085;-74
2024/03/27 03:03:55;;;;;;;;;;;9.10;99.90;;;;;;2064051;28;19996;-74
2024/03/27 03:04:56;;;;;;;;;;;9.10;99.90;;;;;;2063676;28;19957;-74
2024/03/27 03:05:56;;;;;;;;;;;9.10;99.90;;;;;;2057041;28;19956;-74
2024/03/27 03:06:57;;;;;;;;;;;9.00;99.90;;;;;;2075869;28;19960;-74
2024/03/27 03:07:57;;;;;;;;;;;9.00;99.90;;;;;;2071213;28;19952;-75
2024/03/27 03:08:58;;;;;;;;;;;9.10;99.90;;;;;;2053371;28;20028;-73
2024/03/27 03:09:58;;;;;;;;;;;9.00;99.90;;;;;;2060917;28;19918;-74
2024/03/27 03:10:59;;;;;;;;;;;9.10;99.90;;;;;;2055073;28;20465;-74
2024/03/27 03:11:59;;;;;;;;;;;9.10;99.90;;;;;;2058122;28;20035;-74
2024/03/27 03:13:00;;;;;;;;;;;9.10;99.90;;;;;;2055402;28;19949;-74
2024/03/27 03:14:00;;;;;;;;;;;9.10;99.90;;;;;;2061283;28;19977;-75
2024/03/27 03:15:01;;;;;;;;;;;9.10;99.90;;;;;;2055899;28;19913;-74
2024/03/27 03:16:01;;;;;;;;;;;9.10;99.90;;;;;;2053971;28;19941;-74
2024/03/27 03:17:02;;;;;;;;;;;9.10;99.90;;;;;;2062840;28;19918;-74
2024/03/27 03:18:03;;;;;;;;;;;9.10;99.90;;;;;;2062658;28;20039;-74
2024/03/27 03:19:03;;;;;;;;;;;9.10;99.90;;;;;;2063083;28;19918;-74
2024/03/27 03:20:05;;;;;;;;;;;9.10;99.90;;;;;;2063556;28;20012;-74
2024/03/27 03:21:06;;;;;;;;;;;9.10;99.90;;;;;;2061709;28;20121;-75
2024/03/27 03:22:07;;;;;;;;;;;9.10;99.90;;;;;;2060491;28;19957;-75
2024/03/27 03:23:07;;;;;;;;;;;9.10;99.90;;;;;;2052269;28;19962;-74
2024/03/27 03:24:08;;;;;;;;;;;9.10;99.90;;;;;;2052781;28;19969;-74
2024/03/27 03:25:08;;;;;;;;;;;9.10;99.90;;;;;;2071074;28;20094;-75
2024/03/27 03:26:09;;;;;;;;;;;9.00;99.90;;;;;;2071472;28;19917;-75
2024/03/27 03:27:09;;;;;;;;;;;9.00;99.90;;;;;;2073251;28;19917;-75
2024/03/27 03:28:10;;;;;;;;;;;8.90;99.90;;;;;;2074297;28;19921;-75
2024/03/27 03:29:10;;;;;;;;;;;9.00;99.90;;;;;;2072706;28;19921;-73
2024/03/27 03:30:11;;;;;;;;;;;8.90;99.90;;;;;;2069720;28;19957;-74
2024/03/27 03:31:16;;;;;;;;;;;8.90;99.90;;;;;;2062133;28;19964;-75
2024/03/27 03:32:17;;;;;;;;;;;9.00;99.90;;;;;;2053083;28;20024;-74
2024/03/27 03:33:17;;;;;;;;;;;9.00;99.90;;;;;;2056083;28;19922;-74
2024/03/27 03:34:18;;;;;;;;;;;9.00;99.90;;;;;;2064683;28;19925;-75
2024/03/27 03:35:19;;;;;;;;;;;9.00;99.90;;;;;;2065238;28;19921;-75
2024/03/27 03:36:19;;;;;;;;;;;9.00;99.90;;;;;;2069505;28;19918;-75
2024/03/27 03:37:20;;;;;;;;;;;8.90;99.90;;;;;;2080644;28;19912;-75
2024/03/27 03:38:21;;;;;;;;;;;8.90;99.90;;;;;;2071231;28;20416;-75
2024/03/27 03:39:21;;;;;;;;;;;8.80;99.90;;;;;;2069847;28;20386;-75
2024/03/27 03:40:22;;;;;;;;;;;8.80;99.90;;;;;;2073010;28;20007;-75
2024/03/27 03:41:22;;;;;;;;;;;8.80;99.90;;;;;;2072454;28;20414;-75
2024/03/27 03:42:23;;;;;;;;;;;8.70;99.90;;;;;;2061936;28;19914;-75
2024/03/27 03:43:24;;;;;;;;;;;8.70;99.90;;;;;;2061630;28;20298;-75
2024/03/27 03:44:24;;;;;;;;;;;8.80;99.90;;;;;;2068639;28;19924;-75
2024/03/27 03:45:25;;;;;;;;;;;8.70;99.90;;;;;;2073386;28;20012;-75
2024/03/27 03:46:25;;;;;;;;;;;8.70;99.90;;;;;;2068702;28;20371;-75
2024/03/27 03:47:26;;;;;;;;;;;8.80;99.90;;;;;;2065071;28;19956;-75
2024/03/27 03:48:26;;;;;;;;;;;8.70;99.90;;;;;;2052471;28;19968;-74
2024/03/27 03:49:27;;;;;;;;;;;8.70;99.90;;;;;;2061023;28;20384;-75
2024/03/27 03:50:27;;;;;;;;;;;8.70;99.90;;;;;;2071600;28;19913;-75
2024/03/27 03:51:27;;;;;;;;;;;8.80;99.90;;;;;;2060152;28;20608;-75
2024/03/27 03:52:28;;;;;;;;;;;8.80;99.90;;;;;;2071249;28;20270;-75
2024/03/27 03:53:28;;;;;;;;;;;8.80;99.90;;;;;;2067884;28;20447;-75
2024/03/27 03:54:29;;;;;;;;;;;8.90;99.90;;;;;;2063422;28;19925;-76
2024/03/27 03:55:29;;;;;;;;;;;8.90;99.90;;;;;;2067985;28;19984;-75
2024/03/27 03:56:30;;;;;;;;;;;8.80;99.90;;;;;;2068264;28;20645;-74
2024/03/27 03:57:30;;;;;;;;;;;8.90;99.90;;;;;;2062955;28;19917;-73
2024/03/27 03:58:31;;;;;;;;;;;8.90;99.90;;;;;;2060056;28;20647;-74
2024/03/27 03:59:31;;;;;;;;;;;8.80;99.90;;;;;;2070739;28;20012;-74
2024/03/27 04:00:32;;;;;;;;;;;8.80;99.90;;;;;;2070215;28;19924;-74
2024/03/27 04:01:32;;;;;;;;;;;8.80;99.90;;;;;;2071110;28;19913;-73
2024/03/27 04:02:33;;;;;;;;;;;8.70;99.90;;;;;;2062297;28;19917;-74
2024/03/27 04:03:33;;;;;;;;;;;8.70;99.90;;;;;;2065187;28;19975;-74
2024/03/27 04:04:34;;;;;;;;;;;8.80;99.90;;;;;;2060908;28;20400;-74
2024/03/27 04:05:34;;;;;;;;;;;8.70;99.90;;;;;;2052655;28;19917;-74
2024/03/27 04:06:35;;;;;;;;;;;8.70;99.90;;;;;;2063277;28;19921;-73
2024/03/27 04:07:36;;;;;;;;;;;8.70;99.90;;;;;;2061579;28;20387;-74
2024/03/27 04:08:36;;;;;;;;;;;8.70;99.90;;;;;;2059426;28;19933;-74
2024/03/27 04:09:37;;;;;;;;;;;8.70;99.90;;;;;;2061632;28;19928;-74
2024/03/27 04:10:39;;;;;;;;;;;8.70;99.90;;;;;;2059409;28;20307;-76
2024/03/27 04:11:40;;;;;;;;;;;8.70;99.90;;;;;;2060469;28;19917;-73
2024/03/27 04:12:40;;;;;;;;;;;8.60;99.90;;;;;;2062421;28;19925;-74
2024/03/27 04:13:41;;;;;;;;;;;8.60;99.90;;;;;;2045731;28;19922;-75
2024/03/27 04:14:41;;;;;;;;;;;8.60;99.90;;;;;;2052654;28;19918;-74
2024/03/27 04:15:42;;;;;;;;;;;8.60;99.90;;;;;;2054127;28;20856;-74
2024/03/27 04:16:42;;;;;;;;;;;8.50;99.90;;;;;;2047271;28;19966;-74
2024/03/27 04:17:43;;;;;;;;;;;8.50;99.90;;;;;;2052761;28;19945;-74
2024/03/27 04:18:43;;;;;;;;;;;8.50;99.90;;;;;;2062267;28;20333;-74
2024/03/27 04:19:44;;;;;;;;;;;8.50;99.90;;;;;;2065108;28;19917;-74
2024/03/27 04:20:44;;;;;;;;;;;8.60;99.90;;;;;;2071617;28;20395;-74
2024/03/27 04:21:45;;;;;;;;;;;8.60;99.90;;;;;;2072695;28;19917;-74
2024/03/27 04:22:45;;;;;;;;;;;8.70;99.90;;;;;;2060347;28;19917;-74
2024/03/27 04:23:46;;;;;;;;;;;8.70;99.90;;;;;;2056951;28;19914;-74
2024/03/27 04:24:47;;;;;;;;;;;8.70;99.90;;;;;;2054528;28;20311;-74
2024/03/27 04:25:48;;;;;;;;;;;8.70;99.90;;;;;;2055468;28;20471;-73
2024/03/27 04:26:50;;;;;;;;;;;8.70;99.90;;;;;;2065745;28;20008;-73
2024/03/27 04:27:51;;;;;;;;;;;8.70;99.90;;;;;;2075460;28;19917;-76
2024/03/27 04:28:52;;;;;;;;;;;8.60;99.90;;;;;;2070358;28;20273;-73
2024/03/27 04:29:52;;;;;;;;;;;8.70;99.90;;;;;;2061888;28;20098;-74
2024/03/27 04:30:53;;;;;;;;;;;8.70;99.90;;;;;;2059037;28;19921;-75
2024/03/27 04:31:54;;;;;;;;;;;8.70;99.90;;;;;;2063840;28;19913;-74
2024/03/27 04:32:54;;;;;;;;;;;8.70;99.90;;;;;;2075901;28;19923;-74
2024/03/27 04:33:55;;;;;;;;;;;8.70;99.90;;;;;;2060412;28;20320;-75
2024/03/27 04:34:56;;;;;;;;;;;8.70;99.90;;;;;;2067769;28;19922;-74
2024/03/27 04:35:56;;;;;;;;;;;8.70;99.90;;;;;;2075546;28;20322;-74
2024/03/27 04:36:57;;;;;;;;;;;8.70;99.90;;;;;;2067574;28;19917;-75
2024/03/27 04:37:57;;;;;;;;;;;8.70;99.90;;;;;;2066522;28;19925;-74
2024/03/27 04:38:58;;;;;;;;;;;8.70;99.90;;;;;;2076220;28;19967;-74
2024/03/27 04:39:59;;;;;;;;;;;8.70;99.90;;;;;;2067270;28;19917;-75
2024/03/27 04:41:01;;;;;;;;;;;8.70;99.90;;;;;;2064295;28;19924;-74
2024/03/27 04:42:03;;;;;;;;;;;8.70;99.90;;;;;;2076254;28;19917;-74
2024/03/27 04:43:03;;;;;;;;;;;8.70;99.90;;;;;;2067253;28;19917;-75
2024/03/27 04:44:04;;;;;;;;;;;8.70;99.90;;;;;;2067575;28;20036;-74
2024/03/27 04:45:05;;;;;;;;;;;8.60;99.90;;;;;;2067068;28;19985;-74
2024/03/27 04:46:06;;;;;;;;;;;8.60;99.90;;;;;;2067158;28;19918;-74
2024/03/27 04:47:06;;;;;;;;;;;8.70;99.90;;;;;;2067142;28;19924;-75
2024/03/27 04:48:07;;;;;;;;;;;8.70;99.90;;;;;;2067307;28;20319;-74
2024/03/27 04:49:07;;;;;;;;;;;8.70;99.90;;;;;;2066839;28;19917;-75
2024/03/27 04:50:08;;;;;;;;;;;8.80;99.90;;;;;;2064248;28;19987;-74
2024/03/27 04:51:08;;;;;;;;;;;8.70;99.90;;;;;;2075985;28;19917;-75
2024/03/27 04:52:09;;;;;;;;;;;8.70;99.90;;;;;;2067419;28;20040;-74
2024/03/27 04:53:09;;;;;;;;;;;8.60;99.90;;;;;;2067590;28;19921;-75
2024/03/27 04:54:10;;;;;;;;;;;8.60;99.90;;;;;;2076011;28;19917;-75
2024/03/27 04:55:10;;;;;;;;;;;8.60;99.90;;;;;;2075741;28;19968;-75
2024/03/27 04:56:11;;;;;;;;;;;8.70;99.90;;;;;;2067066;28;19969;-75
2024/03/27 04:57:11;;;;;;;;;;;8.70;99.90;;;;;;2067378;28;19988;-76
2024/03/27 04:58:11;;;;;;;;;;;8.70;99.90;;;;;;2076143;28;19968;-76
2024/03/27 04:59:12;;;;;;;;;;;8.70;99.90;;;;;;2067180;28;20429;-75
2024/03/27 05:00:13;;;;;;;;;;;8.70;99.90;;;;;;2067499;28;19918;-75
2024/03/27 05:01:13;;;;;;;;;;;8.80;99.90;;;;;;2067126;28;19913;-74
2024/03/27 05:02:14;;;;;;;;;;;8.70;99.90;;;;;;2067529;28;19913;-75
2024/03/27 05:03:14;;;;;;;;;;;8.70;99.90;;;;;;2059108;28;20082;-75
2024/03/27 05:04:15;;;;;;;;;;;8.70;99.90;;;;;;2057839;28;19984;-74
2024/03/27 05:05:15;;;;;;;;;;;8.70;99.90;;;;;;2066113;28;19988;-75
2024/03/27 05:06:16;;;;;;;;;;;8.80;99.90;;;;;;2066760;28;19940;-76
2024/03/27 05:07:16;;;;;;;;;;;8.80;99.90;;;;;;2067412;28;19918;-75
2024/03/27 05:08:17;;;;;;;;;;;8.80;99.90;;;;;;2067414;28;19914;-75
2024/03/27 05:09:17;;;;;;;;;;;8.80;99.90;;;;;;2060304;28;20280;-75
2024/03/27 05:10:18;;;;;;;;;;;8.80;99.90;;;;;;2061493;28;19914;-74
2024/03/27 05:11:18;;;;;;;;;;;8.80;99.90;;;;;;2065346;28;19980;-74
2024/03/27 05:12:19;;;;;;;;;;;8.90;99.90;;;;;;2074475;28;19913;-75
2024/03/27 05:13:20;;;;;;;;;;;9.00;99.90;;;;;;2075776;28;19944;-74
2024/03/27 05:14:21;;;;;;;;;;;9.00;99.90;;;;;;2075807;28;19956;-74
2024/03/27 05:15:21;;;;;;;;;;;9.00;99.90;;;;;;2066624;28;20292;-74
2024/03/27 05:16:22;;;;;;;;;;;9.10;99.90;;;;;;2059035;28;19917;-75
2024/03/27 05:17:23;;;;;;;;;;;9.00;99.90;;;;;;2067021;28;19918;-75
2024/03/27 05:18:24;;;;;;;;;;;9.00;99.90;;;;;;2075642;28;19921;-75
2024/03/27 05:19:25;;;;;;;;;;;9.10;99.90;;;;;;2075710;28;19949;-75
2024/03/27 05:20:26;;;;;;;;;;;9.10;99.90;;;;;;2075759;28;19917;-75
2024/03/27 05:21:27;;;;;;;;;;;9.10;99.90;;;;;;2075840;28;20399;-75
2024/03/27 05:22:27;;;;;;;;;;;9.10;99.90;;;;;;2075702;28;19924;-75
2024/03/27 05:23:28;;;;;;;;;;;9.10;99.90;;;;;;2067502;28;19960;-74
2024/03/27 05:24:28;;;;;;;;;;;9.20;99.90;;;;;;2067287;28;19920;-73
2024/03/27 05:25:29;;;;;;;;;;;9.20;99.90;;;;;;2075881;28;20240;-74
2024/03/27 05:26:29;;;;;;;;;;;9.10;99.90;;;;;;2073553;28;19917;-73
2024/03/27 05:27:29;;;;;;;;;;;9.10;99.90;;;;;;2068032;28;19928;-74
2024/03/27 05:28:30;;;;;;;;;;;9.20;99.90;;;;;;2067694;28;20371;-74
2024/03/27 05:29:30;;;;;;;;;;;9.20;99.90;;;;;;2065937;28;19929;-73
2024/03/27 05:30:32;;;;;;;;;;;9.20;99.90;;;;;;2055727;28;19920;-74
2024/03/27 05:31:32;;;;;;;;;;;9.20;99.90;;;;;;2056975;28;20369;-75
2024/03/27 05:32:33;;;;;;;;;;;9.30;99.90;;;;;;2058815;28;20006;-75
2024/03/27 05:33:33;;;;;;;;;;;9.30;99.90;;;;;;2059537;28;19964;-84
2024/03/27 05:34:33;;;;;;;;;;;9.30;99.90;;;;;;2069703;28;19948;-85
2024/03/27 05:35:34;;;;;;;;;;;9.30;99.90;;;;;;2059469;28;20001;-74
2024/03/27 05:36:35;;;;;;;;;;;9.40;99.90;;;;;;2057289;28;19962;-85
2024/03/27 05:37:35;;;;;;;;;;;9.40;99.90;;;;;;2067114;28;20458;-73
2024/03/27 05:38:36;;;;;;;;;;;9.50;99.90;;;;;;2067460;28;19930;-73
2024/03/27 05:39:36;;;;;;;;;;;9.40;99.90;;;;;;2062644;28;19918;-74
2024/03/27 05:40:36;;;;;;;;;;;9.50;99.90;;;;;;2058815;28;20410;-74
2024/03/27 05:41:39;;;;;;;;;;;9.50;99.90;;;;;;2059059;28;20375;-74
2024/03/27 05:42:40;;;;;;;;;;;9.50;99.90;;;;;;2067526;28;19924;-74
2024/03/27 05:43:41;;;;;;;;;;;9.50;99.90;;;;;;2064796;28;19921;-73
2024/03/27 05:44:41;;;;;;;;;;;9.50;99.90;;;;;;2066752;28;19984;-73
2024/03/27 05:45:41;;;;;;;;;;;9.60;99.90;;;;;;2067313;28;19917;-73
2024/03/27 05:46:45;;;;;;;;;;;9.60;99.90;;;;;;2059115;28;20021;-72
2024/03/27 05:47:45;;;;;;;;;;;9.60;99.90;;;;;;2058921;28;20664;-73
2024/03/27 05:48:46;;;;;;;;;;;9.60;99.90;;;;;;2067484;28;19918;-73
2024/03/27 05:49:55;;;;;;;;;;;9.60;99.90;;;;;;2061288;28;20606;-76
2024/03/27 05:51:07;;;;;;;;;;;9.60;99.90;;;;;;2060786;28;19914;-76
2024/03/27 05:52:18;;;;;;;;;;;9.70;99.90;;;;;;2062360;28;20331;-74
2024/03/27 05:53:38;;;;;;;;;;;9.70;99.90;;;;;;2058749;28;19914;-73
2024/03/27 05:54:39;;;;;;;;;;;9.70;99.90;;;;;;2053985;28;19970;-74
2024/03/27 05:55:42;;;;;;;;;;;9.70;99.90;;;;;;2060989;28;19921;-76
2024/03/27 05:56:53;;;;;;;;;;;9.70;99.90;;;;;;2054429;28;19918;-73
2024/03/27 05:58:04;;;;;;;;;;;9.70;99.90;;;;;;2054710;28;20400;-74
2024/03/27 05:59:09;;;;;;;;;;;9.70;99.90;;;;;;2062876;28;20159;-74